createdAt,value
2018-04-23T04:09:35.139Z,0
2018-04-23T04:10:00.757Z,0
2018-04-23T04:10:26.301Z,0
2018-04-23T04:10:51.727Z,0
2018-04-23T04:11:17.196Z,0
2018-04-23T04:11:42.787Z,0
2018-04-23T04:12:08.373Z,0
2018-04-23T04:12:33.765Z,0
2018-04-23T04:12:59.305Z,0
2018-04-23T04:13:24.843Z,0
2018-04-23T04:13:50.352Z,0
2018-04-23T04:14:15.664Z,0
2018-04-23T04:14:41.234Z,0
2018-04-23T04:15:06.678Z,0
2018-04-23T04:15:32.175Z,0
2018-04-23T04:15:57.624Z,0
2018-04-23T04:16:23.115Z,0
2018-04-23T04:16:48.544Z,0
2018-04-23T04:17:14.012Z,0
2018-04-23T04:17:39.429Z,5
2018-04-23T04:18:04.969Z,5
2018-04-23T04:18:30.459Z,5
2018-04-23T04:18:55.854Z,5
2018-04-23T04:19:21.327Z,5
2018-04-23T04:19:46.791Z,5
2018-04-23T04:20:12.283Z,5
2018-04-23T04:20:37.849Z,5
2018-04-23T04:21:03.319Z,5
2018-04-23T04:21:28.786Z,5
2018-04-23T04:21:54.220Z,5
2018-04-23T04:22:19.683Z,5
2018-04-23T04:22:45.187Z,5
2018-04-23T04:23:10.701Z,5
2018-04-23T04:23:36.184Z,5
2018-04-23T04:24:01.592Z,5
2018-04-23T04:24:27.024Z,10
2018-04-23T04:24:52.531Z,10
2018-04-23T04:25:17.982Z,10
2018-04-23T04:25:43.544Z,10
2018-04-23T04:26:09.005Z,10
2018-04-23T04:26:34.483Z,10
2018-04-23T04:27:00.091Z,10
2018-04-23T04:27:25.563Z,10
2018-04-23T04:27:51.051Z,10
2018-04-23T04:28:16.504Z,10
2018-04-23T04:28:41.971Z,15
2018-04-23T04:29:07.480Z,15
2018-04-23T04:29:32.957Z,15
2018-04-23T04:29:58.443Z,15
2018-04-23T04:30:23.932Z,15
2018-04-23T04:30:49.361Z,15
2018-04-23T04:31:14.881Z,15
2018-04-23T04:31:40.304Z,15
2018-04-23T04:32:05.818Z,15
2018-04-23T04:32:31.267Z,15
2018-04-23T04:32:56.762Z,15
2018-04-23T04:33:22.242Z,15
2018-04-23T04:33:47.739Z,15
2018-04-23T04:34:13.249Z,15
2018-04-23T04:34:38.705Z,15
2018-04-23T04:35:04.391Z,20
2018-04-23T04:35:30.011Z,20
2018-04-23T04:35:55.707Z,20
2018-04-23T04:36:21.508Z,20
2018-04-23T04:36:47.449Z,20
2018-04-23T04:37:13.318Z,15
2018-04-23T04:37:39.972Z,15
2018-04-23T04:38:05.464Z,15
2018-04-23T04:38:31.380Z,15
2018-04-23T04:38:57.052Z,10
2018-04-23T04:39:23.248Z,10
2018-04-23T04:39:49.747Z,10
2018-04-23T04:40:15.412Z,10
2018-04-23T04:40:41.884Z,10
2018-04-23T04:41:09.264Z,10
2018-04-23T04:41:35.731Z,10
2018-04-23T04:42:02.126Z,10
2018-04-23T04:42:28.445Z,10
2018-04-23T04:43:41.268Z,10
2018-04-23T04:44:35.605Z,10
2018-04-23T04:45:02.014Z,10
2018-04-23T04:45:27.648Z,10
2018-04-23T04:45:53.627Z,10
2018-04-23T04:46:19.492Z,10
2018-04-23T04:46:45.309Z,10
2018-04-23T04:47:11.165Z,10
2018-04-23T04:47:36.562Z,15
2018-04-23T04:48:03.781Z,15
2018-04-23T04:48:32.451Z,15
2018-04-23T04:49:00.249Z,15
2018-04-23T04:49:25.948Z,15
2018-04-23T04:49:54.299Z,15
2018-04-23T04:51:36.385Z,15
2018-04-23T04:52:01.914Z,15
2018-04-23T04:52:28.005Z,15
2018-04-23T04:52:53.990Z,15
2018-04-23T04:53:20.691Z,15
2018-04-23T04:53:46.903Z,15
2018-04-23T04:54:13.116Z,15
2018-04-23T04:54:39.466Z,15
2018-04-23T04:55:05.379Z,20
2018-04-23T04:55:31.510Z,20
2018-04-23T04:55:57.616Z,20
2018-04-23T04:56:24.052Z,20
2018-04-23T04:56:49.854Z,20
2018-04-23T04:57:16.415Z,20
2018-04-23T04:57:44.196Z,25
2018-04-23T04:58:09.873Z,25
2018-04-23T04:58:35.664Z,30
2018-04-23T04:59:02.183Z,35
2018-04-23T04:59:28.553Z,35
2018-04-23T04:59:54.149Z,40
2018-04-23T05:00:20.570Z,45
2018-04-23T05:00:47.118Z,45
2018-04-23T05:01:12.870Z,45
2018-04-23T05:01:39.061Z,45
2018-04-23T05:02:04.951Z,45
2018-04-23T05:02:31.749Z,45
2018-04-23T05:02:57.502Z,45
2018-04-23T05:03:23.797Z,45
2018-04-23T05:03:49.287Z,40
2018-04-23T05:04:15.646Z,40
2018-04-23T05:04:41.651Z,40
2018-04-23T05:05:07.425Z,40
2018-04-23T05:05:33.125Z,40
2018-04-23T05:05:58.928Z,40
2018-04-23T05:06:24.333Z,40
2018-04-23T05:06:50.208Z,35
2018-04-23T05:07:16.195Z,40
2018-04-23T05:07:42.149Z,40
2018-04-23T05:08:07.968Z,40
2018-04-23T05:08:33.636Z,40
2018-04-23T05:08:59.587Z,40
2018-04-23T05:09:25.461Z,45
2018-04-23T05:09:50.936Z,50
2018-04-23T05:10:17.023Z,50
2018-04-23T05:10:42.776Z,55
2018-04-23T05:11:08.437Z,55
2018-04-23T05:11:34.212Z,55
2018-04-23T05:12:00.530Z,55
2018-04-23T05:12:26.729Z,60
2018-04-23T05:12:52.289Z,60
2018-04-23T05:13:18.087Z,65
2018-04-23T05:13:43.889Z,70
2018-04-23T05:14:09.602Z,70
2018-04-23T05:14:35.136Z,70
2018-04-23T05:15:00.789Z,70
2018-04-23T05:15:26.973Z,70
2018-04-23T05:15:53.013Z,65
2018-04-23T05:16:18.964Z,65
2018-04-23T05:16:44.857Z,65
2018-04-23T05:17:10.530Z,65
2018-04-23T05:17:36.201Z,65
2018-04-23T05:18:01.806Z,65
2018-04-23T05:18:27.734Z,65
2018-04-23T05:18:53.149Z,65
2018-04-23T05:19:18.915Z,65
2018-04-23T05:19:44.919Z,65
2018-04-23T05:20:10.546Z,60
2018-04-23T05:20:36.432Z,60
2018-04-23T05:21:02.279Z,60
2018-04-23T05:21:28.018Z,60
2018-04-23T05:21:53.450Z,65
2018-04-23T05:22:19.568Z,65
2018-04-23T05:22:44.979Z,65
2018-04-23T05:23:10.932Z,70
2018-04-23T05:23:36.621Z,75
2018-04-23T05:24:02.929Z,75
2018-04-23T05:24:28.057Z,75
2018-04-23T05:24:54.030Z,80
2018-04-23T05:25:20.055Z,85
2018-04-23T05:25:45.718Z,85
2018-04-23T05:26:11.374Z,85
2018-04-23T05:26:37.643Z,85
2018-04-23T05:27:03.303Z,85
2018-04-23T05:27:28.837Z,80
2018-04-23T05:27:55.143Z,80
2018-04-23T05:28:21.020Z,75
2018-04-23T05:28:47.111Z,75
2018-04-23T05:29:12.337Z,75
2018-04-23T05:29:37.955Z,80
2018-04-23T05:30:03.879Z,85
2018-04-23T05:30:29.800Z,95
2018-04-23T05:30:55.424Z,105
2018-04-23T05:31:21.403Z,110
2018-04-23T05:31:47.758Z,120
2018-04-23T05:32:13.411Z,120
2018-04-23T05:32:39.645Z,115
2018-04-23T05:33:05.767Z,125
2018-04-23T05:33:31.632Z,120
2018-04-23T05:33:57.535Z,125
2018-04-23T05:34:23.594Z,120
2018-04-23T05:34:49.375Z,130
2018-04-23T05:35:14.969Z,125
2018-04-23T05:35:40.833Z,130
2018-04-23T05:36:06.521Z,135
2018-04-23T05:36:32.343Z,140
2018-04-23T05:36:57.884Z,135
2018-04-23T05:37:23.660Z,130
2018-04-23T05:37:49.744Z,130
2018-04-23T05:38:16.736Z,135
2018-04-23T05:38:43.034Z,130
2018-04-23T05:39:08.707Z,130
2018-04-23T05:39:34.181Z,135
2018-04-23T05:39:59.579Z,145
2018-04-23T05:40:25.099Z,145
2018-04-23T05:40:50.577Z,145
2018-04-23T05:41:16.114Z,145
2018-04-23T05:41:41.576Z,150
2018-04-23T05:42:07.008Z,155
2018-04-23T05:42:32.490Z,160
2018-04-23T05:42:58.017Z,155
2018-04-23T05:43:23.487Z,150
2018-04-23T05:43:48.959Z,145
2018-04-23T05:44:14.475Z,135
2018-04-23T05:44:39.914Z,125
2018-04-23T05:45:05.376Z,125
2018-04-23T05:45:30.892Z,125
2018-04-23T05:45:56.333Z,120
2018-04-23T05:46:21.798Z,125
2018-04-23T05:46:47.264Z,120
2018-04-23T05:47:12.720Z,120
2018-04-23T05:47:38.232Z,120
2018-04-23T05:48:03.735Z,130
2018-04-23T05:48:29.163Z,125
2018-04-23T05:48:54.680Z,125
2018-04-23T05:49:20.112Z,125
2018-04-23T05:49:45.623Z,120
2018-04-23T05:50:11.077Z,120
2018-04-23T05:50:36.563Z,120
2018-04-23T05:51:02.020Z,120
2018-04-23T05:51:27.494Z,125
2018-04-23T05:51:52.973Z,125
2018-04-23T05:52:18.525Z,130
2018-04-23T05:52:43.954Z,130
2018-04-23T05:53:09.380Z,135
2018-04-23T05:53:34.914Z,140
2018-04-23T05:54:00.397Z,140
2018-04-23T05:54:25.985Z,145
2018-04-23T05:54:51.425Z,150
2018-04-23T05:55:16.979Z,150
2018-04-23T05:55:42.435Z,155
2018-04-23T05:56:07.831Z,150
2018-04-23T05:56:33.337Z,145
2018-04-23T05:56:58.861Z,145
2018-04-23T05:57:24.356Z,145
2018-04-23T05:57:49.872Z,145
2018-04-23T05:58:15.401Z,145
2018-04-23T05:58:40.829Z,140
2018-04-23T05:59:06.296Z,140
2018-04-23T05:59:31.811Z,145
2018-04-23T05:59:57.334Z,145
2018-04-23T06:00:22.799Z,150
2018-04-23T06:00:48.279Z,155
2018-04-23T06:01:13.750Z,155
2018-04-23T06:01:39.200Z,165
2018-04-23T06:02:04.756Z,175
2018-04-23T06:02:30.214Z,180
2018-04-23T06:02:55.677Z,180
2018-04-23T06:03:21.172Z,180
2018-04-23T06:03:46.668Z,175
2018-04-23T06:04:12.091Z,170
2018-04-23T06:04:37.661Z,175
2018-04-23T06:05:03.319Z,160
2018-04-23T06:05:28.986Z,155
2018-04-23T06:05:54.408Z,150
2018-04-23T06:06:19.868Z,150
2018-04-23T06:06:45.297Z,150
2018-04-23T06:07:10.806Z,150
2018-04-23T06:07:36.303Z,150
2018-04-23T06:08:01.772Z,150
2018-04-23T06:08:27.218Z,145
2018-04-23T06:08:52.753Z,145
2018-04-23T06:09:18.208Z,150
2018-04-23T06:09:43.685Z,155
2018-04-23T06:10:09.169Z,155
2018-04-23T06:10:34.636Z,155
2018-04-23T06:11:00.145Z,160
2018-04-23T06:11:25.561Z,155
2018-04-23T06:11:51.035Z,150
2018-04-23T06:12:16.524Z,145
2018-04-23T06:12:41.967Z,145
2018-04-23T06:13:07.411Z,145
2018-04-23T06:13:32.938Z,145
2018-04-23T06:13:58.486Z,145
2018-04-23T06:14:24.038Z,145
2018-04-23T06:14:49.409Z,150
2018-04-23T06:15:14.869Z,150
2018-04-23T06:15:40.328Z,150
2018-04-23T06:16:05.825Z,150
2018-04-23T06:16:31.228Z,150
2018-04-23T06:16:56.727Z,150
2018-04-23T06:17:22.253Z,150
2018-04-23T06:17:47.703Z,155
2018-04-23T06:18:13.225Z,160
2018-04-23T06:18:38.687Z,170
2018-04-23T06:19:04.144Z,180
2018-04-23T06:19:30.055Z,190
2018-04-23T06:19:55.580Z,200
2018-04-23T06:20:21.026Z,200
2018-04-23T06:20:46.530Z,195
2018-04-23T06:21:12.015Z,195
2018-04-23T06:21:37.539Z,195
2018-04-23T06:22:03.010Z,195
2018-04-23T06:22:28.546Z,205
2018-04-23T06:22:53.993Z,190
2018-04-23T06:23:19.483Z,195
2018-04-23T06:23:44.928Z,200
2018-04-23T06:24:10.436Z,195
2018-04-23T06:24:35.870Z,195
2018-04-23T06:25:01.377Z,205
2018-04-23T06:25:26.996Z,220
2018-04-23T06:25:52.423Z,235
2018-04-23T06:26:18.009Z,230
2018-04-23T06:26:43.908Z,225
2018-04-23T06:27:09.369Z,210
2018-04-23T06:27:34.870Z,200
2018-04-23T06:28:00.532Z,205
2018-04-23T06:28:26.143Z,220
2018-04-23T06:28:52.820Z,240
2018-04-23T06:29:19.256Z,245
2018-04-23T06:29:45.139Z,260
2018-04-23T06:30:11.029Z,280
2018-04-23T06:30:36.608Z,305
2018-04-23T06:31:02.508Z,320
2018-04-23T06:31:28.104Z,315
2018-04-23T06:31:53.948Z,290
2018-04-23T06:32:19.658Z,245
2018-04-23T06:32:45.925Z,215
2018-04-23T06:33:11.520Z,185
2018-04-23T06:33:37.186Z,170
2018-04-23T06:34:02.867Z,155
2018-04-23T06:34:29.091Z,150
2018-04-23T06:34:54.569Z,165
2018-04-23T06:35:20.201Z,175
2018-04-23T06:35:45.816Z,175
2018-04-23T06:36:11.386Z,170
2018-04-23T06:36:37.457Z,165
2018-04-23T06:37:03.032Z,170
2018-04-23T06:37:28.715Z,165
2018-04-23T06:37:54.464Z,165
2018-04-23T06:38:20.057Z,165
2018-04-23T06:38:46.098Z,160
2018-04-23T06:39:11.746Z,155
2018-04-23T06:39:37.482Z,160
2018-04-23T06:40:03.126Z,165
2018-04-23T06:40:28.904Z,165
2018-04-23T06:40:54.403Z,165
2018-04-23T06:41:20.141Z,160
2018-04-23T06:41:45.633Z,155
2018-04-23T06:42:11.798Z,135
2018-04-23T06:42:37.578Z,130
2018-04-23T06:43:03.328Z,145
2018-04-23T06:43:29.166Z,155
2018-04-23T06:43:54.732Z,155
2018-04-23T06:44:20.497Z,145
2018-04-23T06:44:46.679Z,140
2018-04-23T06:45:12.357Z,135
2018-04-23T06:45:37.872Z,140
2018-04-23T06:46:03.306Z,130
2018-04-23T06:46:29.029Z,120
2018-04-23T06:46:54.854Z,120
2018-04-23T06:47:20.305Z,125
2018-04-23T06:47:45.882Z,130
2018-04-23T06:48:11.602Z,125
2018-04-23T06:48:37.623Z,115
2018-04-23T06:49:04.090Z,115
2018-04-23T06:49:29.829Z,125
2018-04-23T06:49:55.724Z,135
2018-04-23T06:50:21.958Z,140
2018-04-23T06:50:47.817Z,135
2018-04-23T06:51:13.616Z,120
2018-04-23T06:51:39.463Z,105
2018-04-23T06:52:05.270Z,105
2018-04-23T06:52:31.335Z,115
2018-04-23T06:52:56.977Z,130
2018-04-23T06:53:22.561Z,145
2018-04-23T06:53:48.794Z,155
2018-04-23T06:54:14.789Z,160
2018-04-23T06:54:40.064Z,160
2018-04-23T06:55:05.564Z,160
2018-04-23T06:55:31.555Z,160
2018-04-23T06:55:56.797Z,170
2018-04-23T06:56:22.497Z,165
2018-04-23T06:56:48.240Z,165
2018-04-23T06:57:13.943Z,160
2018-04-23T06:57:40.129Z,155
2018-04-23T06:58:06.152Z,155
2018-04-23T06:58:31.818Z,155
2018-04-23T06:58:57.656Z,155
2018-04-23T06:59:23.146Z,160
